Hauptseite
METAR-TAF:

METAR-TAF

Flughäfen :

NATO-Flugplatz Geilenkirchen

Geilenkirchen, Deutschland

Breite: 50-57-39N, Länge: 006-2-33E, Höhe: 90 m

Beobachtung

Neuester Wetterbericht von vor 41 Minuten, um 17:50 UTC
Wind 3 kt aus Süd
Temperatur 30°C
Luftfeuchtigkeit 27%
Luftdruck 1015 hPa
Sichtweite 10 km oder mehr
keine Wolken unter 1500 m und keine Kumulonimbus oder Gewitterwolken

METAR: ETNG 051750Z 19003KT CAVOK 30/09 Q1015

Zeit: 20:31 (18:31 UTC)

Prognose

Neuester Wetterbericht von vor 1 Stunde und 31 Minuten, um 17:00 UTC
Gültige Prognose vom 05 um 18 UTC bis 06 um 09 UTC
Wind 4 kt aus Süd/Südwest
Sichtweite 10 km oder mehr
keine Wolken unter 1500 m und keine Kumulonimbus oder Gewitterwolken

TAF: ETNG 051700Z 0518/0609 20004KT CAVOK

Wetterbeobachtungen und Prognosen von mehr als 4000 Flughäfen (METAR und TAF Bericht).

Die verfügbaren Stationen werden durch gelbe und rote Markierungen auf der Karte dargestellt.

Führen Sie die Maus auf sie, um den Namen der Station zu sehen.

Darauf klicken, um die Beobachtung von Wetterbeobachtungen und Prognosen zu sehen.

Um die Karte zu ändern : klicken Sie auf den grünen Tasten mit einem schwarzen Kreuz Zum Vergrößern, auf den grünen Button mit einem Gedankenstrich zu verkleinern, oder auf die grünen Pfeile für benachbarte Karten.


METAR-TAF: